sensor_id;sensor_type;location;lat;lon;timestamp;P1;durP1;ratioP1;P2;durP2;ratioP2
15669;SDS011;18524;45.190;5.732;2023-11-18T00:01:16;5.30;;;3.77;;
15669;SDS011;18524;45.190;5.732;2023-11-18T00:06:06;4.97;;;3.90;;
15669;SDS011;18524;45.190;5.732;2023-11-18T00:10:57;5.07;;;3.60;;
15669;SDS011;18524;45.190;5.732;2023-11-18T00:15:48;5.67;;;4.07;;
15669;SDS011;18524;45.190;5.732;2023-11-18T00:20:38;4.47;;;3.70;;
15669;SDS011;18524;45.190;5.732;2023-11-18T00:25:28;4.97;;;3.87;;
15669;SDS011;18524;45.190;5.732;2023-11-18T00:30:19;5.33;;;3.90;;
15669;SDS011;18524;45.190;5.732;2023-11-18T00:35:10;5.60;;;3.87;;
15669;SDS011;18524;45.190;5.732;2023-11-18T00:40:00;6.57;;;4.40;;
15669;SDS011;18524;45.190;5.732;2023-11-18T00:44:51;6.37;;;4.40;;
15669;SDS011;18524;45.190;5.732;2023-11-18T00:49:41;5.17;;;3.67;;
15669;SDS011;18524;45.190;5.732;2023-11-18T00:54:31;5.53;;;4.20;;
15669;SDS011;18524;45.190;5.732;2023-11-18T00:59:22;5.37;;;4.30;;
15669;SDS011;18524;45.190;5.732;2023-11-18T01:04:12;4.80;;;4.17;;
15669;SDS011;18524;45.190;5.732;2023-11-18T01:09:03;6.13;;;4.60;;
15669;SDS011;18524;45.190;5.732;2023-11-18T01:13:53;5.10;;;4.00;;
15669;SDS011;18524;45.190;5.732;2023-11-18T01:18:47;7.03;;;4.43;;
15669;SDS011;18524;45.190;5.732;2023-11-18T01:23:38;5.00;;;4.20;;
15669;SDS011;18524;45.190;5.732;2023-11-18T01:28:28;4.90;;;4.17;;
15669;SDS011;18524;45.190;5.732;2023-11-18T01:33:21;5.57;;;3.90;;
15669;SDS011;18524;45.190;5.732;2023-11-18T01:38:12;5.53;;;4.10;;
15669;SDS011;18524;45.190;5.732;2023-11-18T01:43:03;6.30;;;4.17;;
15669;SDS011;18524;45.190;5.732;2023-11-18T01:48:01;5.83;;;4.30;;
15669;SDS011;18524;45.190;5.732;2023-11-18T01:52:51;5.70;;;3.93;;
15669;SDS011;18524;45.190;5.732;2023-11-18T01:57:43;5.97;;;4.03;;
15669;SDS011;18524;45.190;5.732;2023-11-18T02:02:35;7.17;;;4.10;;
15669;SDS011;18524;45.190;5.732;2023-11-18T02:07:25;5.70;;;4.30;;
15669;SDS011;18524;45.190;5.732;2023-11-18T02:12:21;6.77;;;4.80;;
15669;SDS011;18524;45.190;5.732;2023-11-18T02:17:18;5.57;;;4.70;;
15669;SDS011;18524;45.190;5.732;2023-11-18T02:22:14;7.33;;;4.83;;
15669;SDS011;18524;45.190;5.732;2023-11-18T02:27:05;6.57;;;4.60;;
15669;SDS011;18524;45.190;5.732;2023-11-18T02:31:58;6.47;;;4.87;;
15669;SDS011;18524;45.190;5.732;2023-11-18T02:36:53;6.47;;;4.60;;
15669;SDS011;18524;45.190;5.732;2023-11-18T02:41:51;6.07;;;4.73;;
15669;SDS011;18524;45.190;5.732;2023-11-18T02:46:43;6.23;;;4.57;;
15669;SDS011;18524;45.190;5.732;2023-11-18T02:51:33;7.40;;;4.97;;
15669;SDS011;18524;45.190;5.732;2023-11-18T02:56:29;5.73;;;4.47;;
15669;SDS011;18524;45.190;5.732;2023-11-18T03:01:19;4.97;;;3.97;;
15669;SDS011;18524;45.190;5.732;2023-11-18T03:06:10;5.40;;;4.10;;
15669;SDS011;18524;45.190;5.732;2023-11-18T03:11:01;5.90;;;4.60;;
15669;SDS011;18524;45.190;5.732;2023-11-18T03:15:54;5.87;;;4.33;;
15669;SDS011;18524;45.190;5.732;2023-11-18T03:20:45;5.73;;;4.30;;
15669;SDS011;18524;45.190;5.732;2023-11-18T03:25:36;6.47;;;4.40;;
15669;SDS011;18524;45.190;5.732;2023-11-18T03:30:27;5.77;;;4.60;;
15669;SDS011;18524;45.190;5.732;2023-11-18T03:35:19;7.60;;;5.07;;
15669;SDS011;18524;45.190;5.732;2023-11-18T03:40:13;5.87;;;4.10;;
15669;SDS011;18524;45.190;5.732;2023-11-18T03:45:04;6.63;;;4.70;;
15669;SDS011;18524;45.190;5.732;2023-11-18T03:49:55;5.97;;;4.40;;
15669;SDS011;18524;45.190;5.732;2023-11-18T03:54:45;6.10;;;4.13;;
15669;SDS011;18524;45.190;5.732;2023-11-18T03:59:38;6.53;;;4.27;;
15669;SDS011;18524;45.190;5.732;2023-11-18T04:04:29;5.90;;;4.63;;
15669;SDS011;18524;45.190;5.732;2023-11-18T04:09:19;5.70;;;3.93;;
15669;SDS011;18524;45.190;5.732;2023-11-18T04:14:10;6.50;;;4.70;;
15669;SDS011;18524;45.190;5.732;2023-11-18T04:19:01;6.63;;;5.10;;
15669;SDS011;18524;45.190;5.732;2023-11-18T04:23:52;7.10;;;5.37;;
15669;SDS011;18524;45.190;5.732;2023-11-18T04:28:42;7.10;;;4.73;;
15669;SDS011;18524;45.190;5.732;2023-11-18T04:33:32;9.30;;;5.40;;
15669;SDS011;18524;45.190;5.732;2023-11-18T04:38:23;4.90;;;4.03;;
15669;SDS011;18524;45.190;5.732;2023-11-18T04:43:15;6.60;;;4.57;;
15669;SDS011;18524;45.190;5.732;2023-11-18T04:48:05;6.20;;;4.50;;
15669;SDS011;18524;45.190;5.732;2023-11-18T04:52:56;5.57;;;4.80;;
15669;SDS011;18524;45.190;5.732;2023-11-18T04:57:46;7.97;;;5.40;;
15669;SDS011;18524;45.190;5.732;2023-11-18T05:02:37;5.57;;;4.90;;
15669;SDS011;18524;45.190;5.732;2023-11-18T05:07:28;7.10;;;5.03;;
15669;SDS011;18524;45.190;5.732;2023-11-18T05:12:18;6.60;;;5.40;;
15669;SDS011;18524;45.190;5.732;2023-11-18T05:17:09;7.27;;;5.10;;
15669;SDS011;18524;45.190;5.732;2023-11-18T05:21:59;6.33;;;4.60;;
15669;SDS011;18524;45.190;5.732;2023-11-18T05:26:50;4.90;;;4.40;;
15669;SDS011;18524;45.190;5.732;2023-11-18T05:31:40;5.33;;;4.20;;
15669;SDS011;18524;45.190;5.732;2023-11-18T05:36:30;4.33;;;3.90;;
15669;SDS011;18524;45.190;5.732;2023-11-18T05:41:27;5.37;;;4.37;;
15669;SDS011;18524;45.190;5.732;2023-11-18T05:46:20;4.87;;;4.37;;
15669;SDS011;18524;45.190;5.732;2023-11-18T05:51:12;4.50;;;3.70;;
15669;SDS011;18524;45.190;5.732;2023-11-18T05:56:03;4.50;;;3.83;;
15669;SDS011;18524;45.190;5.732;2023-11-18T06:00:54;3.83;;;3.27;;
15669;SDS011;18524;45.190;5.732;2023-11-18T06:05:44;4.30;;;3.67;;
15669;SDS011;18524;45.190;5.732;2023-11-18T06:10:35;5.30;;;3.70;;
15669;SDS011;18524;45.190;5.732;2023-11-18T06:15:25;4.73;;;4.23;;
15669;SDS011;18524;45.190;5.732;2023-11-18T06:20:17;7.83;;;5.60;;
15669;SDS011;18524;45.190;5.732;2023-11-18T06:25:08;9.07;;;6.23;;
15669;SDS011;18524;45.190;5.732;2023-11-18T06:29:58;7.03;;;5.43;;
15669;SDS011;18524;45.190;5.732;2023-11-18T06:34:49;6.67;;;5.07;;
15669;SDS011;18524;45.190;5.732;2023-11-18T06:39:42;6.23;;;4.37;;
15669;SDS011;18524;45.190;5.732;2023-11-18T06:44:35;5.03;;;4.53;;
15669;SDS011;18524;45.190;5.732;2023-11-18T06:49:25;4.83;;;4.20;;
15669;SDS011;18524;45.190;5.732;2023-11-18T06:54:16;6.70;;;4.10;;
15669;SDS011;18524;45.190;5.732;2023-11-18T06:59:07;7.50;;;4.50;;
15669;SDS011;18524;45.190;5.732;2023-11-18T07:03:57;7.17;;;4.17;;
15669;SDS011;18524;45.190;5.732;2023-11-18T07:08:48;6.70;;;4.33;;
15669;SDS011;18524;45.190;5.732;2023-11-18T07:13:39;7.43;;;4.80;;
15669;SDS011;18524;45.190;5.732;2023-11-18T07:18:29;7.90;;;4.37;;
15669;SDS011;18524;45.190;5.732;2023-11-18T07:23:22;6.10;;;4.03;;
15669;SDS011;18524;45.190;5.732;2023-11-18T07:28:13;6.23;;;3.93;;
15669;SDS011;18524;45.190;5.732;2023-11-18T07:33:07;5.00;;;3.80;;
15669;SDS011;18524;45.190;5.732;2023-11-18T07:37:58;4.43;;;3.67;;
15669;SDS011;18524;45.190;5.732;2023-11-18T07:42:49;5.43;;;3.67;;
15669;SDS011;18524;45.190;5.732;2023-11-18T07:47:39;5.57;;;3.60;;
15669;SDS011;18524;45.190;5.732;2023-11-18T07:52:30;4.77;;;3.40;;
15669;SDS011;18524;45.190;5.732;2023-11-18T07:57:22;4.40;;;3.63;;
15669;SDS011;18524;45.190;5.732;2023-11-18T08:02:13;6.20;;;4.20;;
15669;SDS011;18524;45.190;5.732;2023-11-18T08:07:04;5.87;;;4.47;;
15669;SDS011;18524;45.190;5.732;2023-11-18T08:11:55;5.40;;;4.43;;
15669;SDS011;18524;45.190;5.732;2023-11-18T08:16:45;5.33;;;4.57;;
15669;SDS011;18524;45.190;5.732;2023-11-18T08:21:36;7.03;;;4.57;;
15669;SDS011;18524;45.190;5.732;2023-11-18T08:26:27;6.00;;;4.73;;
15669;SDS011;18524;45.190;5.732;2023-11-18T08:31:18;6.17;;;4.53;;
15669;SDS011;18524;45.190;5.732;2023-11-18T08:36:09;8.20;;;4.90;;
15669;SDS011;18524;45.190;5.732;2023-11-18T08:40:59;7.03;;;4.93;;
15669;SDS011;18524;45.190;5.732;2023-11-18T08:45:49;6.43;;;5.33;;
15669;SDS011;18524;45.190;5.732;2023-11-18T08:50:40;9.57;;;6.33;;
15669;SDS011;18524;45.190;5.732;2023-11-18T08:55:31;9.10;;;5.87;;
15669;SDS011;18524;45.190;5.732;2023-11-18T09:00:30;10.13;;;6.97;;
15669;SDS011;18524;45.190;5.732;2023-11-18T09:05:37;9.77;;;6.43;;
15669;SDS011;18524;45.190;5.732;2023-11-18T09:10:28;11.60;;;6.17;;
15669;SDS011;18524;45.190;5.732;2023-11-18T09:15:18;6.60;;;5.47;;
15669;SDS011;18524;45.190;5.732;2023-11-18T09:20:12;6.43;;;5.23;;
15669;SDS011;18524;45.190;5.732;2023-11-18T09:25:02;5.33;;;4.13;;
15669;SDS011;18524;45.190;5.732;2023-11-18T09:29:59;6.70;;;4.07;;
15669;SDS011;18524;45.190;5.732;2023-11-18T09:34:50;5.43;;;4.50;;
15669;SDS011;18524;45.190;5.732;2023-11-18T09:39:43;4.17;;;3.13;;
15669;SDS011;18524;45.190;5.732;2023-11-18T09:44:36;6.10;;;4.10;;
15669;SDS011;18524;45.190;5.732;2023-11-18T09:49:27;4.67;;;3.47;;
15669;SDS011;18524;45.190;5.732;2023-11-18T09:59:49;6.80;;;5.13;;
15669;SDS011;18524;45.190;5.732;2023-11-18T10:04:49;5.27;;;4.40;;
15669;SDS011;18524;45.190;5.732;2023-11-18T10:09:47;6.33;;;3.70;;
15669;SDS011;18524;45.190;5.732;2023-11-18T10:14:41;7.67;;;5.23;;
15669;SDS011;18524;45.190;5.732;2023-11-18T10:19:49;5.33;;;3.93;;
15669;SDS011;18524;45.190;5.732;2023-11-18T10:24:44;4.10;;;3.53;;
15669;SDS011;18524;45.190;5.732;2023-11-18T10:29:35;5.00;;;3.17;;
15669;SDS011;18524;45.190;5.732;2023-11-18T10:34:25;4.83;;;4.10;;
15669;SDS011;18524;45.190;5.732;2023-11-18T10:39:18;8.70;;;5.90;;
15669;SDS011;18524;45.190;5.732;2023-11-18T10:44:12;5.97;;;4.80;;
15669;SDS011;18524;45.190;5.732;2023-11-18T10:49:05;9.17;;;5.43;;
15669;SDS011;18524;45.190;5.732;2023-11-18T10:53:59;5.13;;;4.03;;
15669;SDS011;18524;45.190;5.732;2023-11-18T10:59:06;5.80;;;3.10;;
15669;SDS011;18524;45.190;5.732;2023-11-18T11:03:57;3.47;;;2.97;;
15669;SDS011;18524;45.190;5.732;2023-11-18T11:08:48;5.27;;;2.53;;
15669;SDS011;18524;45.190;5.732;2023-11-18T11:13:39;3.50;;;2.57;;
15669;SDS011;18524;45.190;5.732;2023-11-18T11:18:31;7.17;;;4.00;;
15669;SDS011;18524;45.190;5.732;2023-11-18T11:28:43;5.10;;;3.10;;
15669;SDS011;18524;45.190;5.732;2023-11-18T11:33:58;3.97;;;2.23;;
15669;SDS011;18524;45.190;5.732;2023-11-18T11:38:52;4.00;;;2.77;;
15669;SDS011;18524;45.190;5.732;2023-11-18T11:43:46;3.07;;;2.60;;
15669;SDS011;18524;45.190;5.732;2023-11-18T11:48:38;5.43;;;3.70;;
15669;SDS011;18524;45.190;5.732;2023-11-18T11:53:34;4.03;;;3.00;;
15669;SDS011;18524;45.190;5.732;2023-11-18T11:58:35;7.13;;;3.70;;
15669;SDS011;18524;45.190;5.732;2023-11-18T12:03:26;5.47;;;4.40;;
15669;SDS011;18524;45.190;5.732;2023-11-18T12:08:26;5.80;;;3.70;;
15669;SDS011;18524;45.190;5.732;2023-11-18T12:13:16;6.30;;;4.47;;
15669;SDS011;18524;45.190;5.732;2023-11-18T12:18:09;5.47;;;3.77;;
15669;SDS011;18524;45.190;5.732;2023-11-18T12:23:03;4.30;;;3.67;;
15669;SDS011;18524;45.190;5.732;2023-11-18T12:28:15;6.60;;;4.47;;
15669;SDS011;18524;45.190;5.732;2023-11-18T12:33:06;9.50;;;5.50;;
15669;SDS011;18524;45.190;5.732;2023-11-18T12:43:48;13.90;;;7.40;;
15669;SDS011;18524;45.190;5.732;2023-11-18T12:48:42;6.27;;;4.40;;
15669;SDS011;18524;45.190;5.732;2023-11-18T12:53:33;5.20;;;3.67;;
15669;SDS011;18524;45.190;5.732;2023-11-18T12:58:26;4.53;;;3.50;;
15669;SDS011;18524;45.190;5.732;2023-11-18T13:03:16;5.87;;;3.83;;
15669;SDS011;18524;45.190;5.732;2023-11-18T13:08:09;14.57;;;7.23;;
15669;SDS011;18524;45.190;5.732;2023-11-18T13:13:00;5.13;;;4.10;;
15669;SDS011;18524;45.190;5.732;2023-11-18T13:18:00;6.57;;;3.73;;
15669;SDS011;18524;45.190;5.732;2023-11-18T13:22:52;4.10;;;3.50;;
15669;SDS011;18524;45.190;5.732;2023-11-18T13:27:45;4.70;;;3.50;;
15669;SDS011;18524;45.190;5.732;2023-11-18T13:32:36;5.50;;;3.60;;
15669;SDS011;18524;45.190;5.732;2023-11-18T13:37:26;5.00;;;3.53;;
15669;SDS011;18524;45.190;5.732;2023-11-18T13:42:20;3.67;;;2.90;;
15669;SDS011;18524;45.190;5.732;2023-11-18T13:47:13;5.07;;;3.23;;
15669;SDS011;18524;45.190;5.732;2023-11-18T13:52:07;3.67;;;3.20;;
15669;SDS011;18524;45.190;5.732;2023-11-18T13:57:01;4.37;;;3.53;;
15669;SDS011;18524;45.190;5.732;2023-11-18T14:01:56;3.67;;;2.93;;
15669;SDS011;18524;45.190;5.732;2023-11-18T14:06:50;2.80;;;2.27;;
15669;SDS011;18524;45.190;5.732;2023-11-18T14:11:42;3.70;;;2.53;;
15669;SDS011;18524;45.190;5.732;2023-11-18T14:16:32;2.93;;;2.57;;
15669;SDS011;18524;45.190;5.732;2023-11-18T14:21:24;2.63;;;2.30;;
15669;SDS011;18524;45.190;5.732;2023-11-18T14:26:15;3.60;;;2.50;;
15669;SDS011;18524;45.190;5.732;2023-11-18T14:31:05;3.23;;;2.10;;
15669;SDS011;18524;45.190;5.732;2023-11-18T14:35:57;3.70;;;1.93;;
15669;SDS011;18524;45.190;5.732;2023-11-18T14:40:48;4.13;;;2.40;;
15669;SDS011;18524;45.190;5.732;2023-11-18T14:45:38;2.83;;;2.23;;
15669;SDS011;18524;45.190;5.732;2023-11-18T14:50:29;3.00;;;2.23;;
15669;SDS011;18524;45.190;5.732;2023-11-18T14:55:20;6.10;;;2.50;;
15669;SDS011;18524;45.190;5.732;2023-11-18T15:00:11;2.80;;;2.13;;
15669;SDS011;18524;45.190;5.732;2023-11-18T15:05:09;2.93;;;2.30;;
15669;SDS011;18524;45.190;5.732;2023-11-18T15:09:59;5.20;;;2.30;;
15669;SDS011;18524;45.190;5.732;2023-11-18T15:14:50;4.10;;;3.00;;
15669;SDS011;18524;45.190;5.732;2023-11-18T15:19:40;3.80;;;2.43;;
15669;SDS011;18524;45.190;5.732;2023-11-18T15:24:30;5.30;;;3.00;;
15669;SDS011;18524;45.190;5.732;2023-11-18T15:29:22;4.83;;;3.10;;
15669;SDS011;18524;45.190;5.732;2023-11-18T15:34:18;5.50;;;3.00;;
15669;SDS011;18524;45.190;5.732;2023-11-18T15:39:09;6.60;;;3.30;;
15669;SDS011;18524;45.190;5.732;2023-11-18T15:43:59;5.13;;;2.83;;
15669;SDS011;18524;45.190;5.732;2023-11-18T15:48:49;3.87;;;2.40;;
15669;SDS011;18524;45.190;5.732;2023-11-18T15:53:40;2.73;;;2.33;;
15669;SDS011;18524;45.190;5.732;2023-11-18T15:58:30;3.57;;;2.80;;
15669;SDS011;18524;45.190;5.732;2023-11-18T16:03:22;3.63;;;2.93;;
15669;SDS011;18524;45.190;5.732;2023-11-18T16:08:12;4.70;;;2.87;;
15669;SDS011;18524;45.190;5.732;2023-11-18T16:13:03;3.93;;;2.80;;
15669;SDS011;18524;45.190;5.732;2023-11-18T16:17:57;4.23;;;3.17;;
15669;SDS011;18524;45.190;5.732;2023-11-18T16:22:49;4.43;;;3.00;;
15669;SDS011;18524;45.190;5.732;2023-11-18T16:27:40;5.00;;;3.63;;
15669;SDS011;18524;45.190;5.732;2023-11-18T16:32:30;4.93;;;3.40;;
15669;SDS011;18524;45.190;5.732;2023-11-18T16:37:20;5.07;;;3.80;;
15669;SDS011;18524;45.190;5.732;2023-11-18T16:42:11;4.50;;;3.37;;
15669;SDS011;18524;45.190;5.732;2023-11-18T16:47:01;4.43;;;3.53;;
15669;SDS011;18524;45.190;5.732;2023-11-18T16:51:52;6.83;;;3.90;;
15669;SDS011;18524;45.190;5.732;2023-11-18T16:56:45;4.97;;;3.87;;
15669;SDS011;18524;45.190;5.732;2023-11-18T17:01:35;5.53;;;4.20;;
15669;SDS011;18524;45.190;5.732;2023-11-18T17:06:25;29.87;;;14.40;;
15669;SDS011;18524;45.190;5.732;2023-11-18T17:11:16;15.00;;;10.80;;
15669;SDS011;18524;45.190;5.732;2023-11-18T17:16:06;6.93;;;5.47;;
15669;SDS011;18524;45.190;5.732;2023-11-18T17:20:57;6.30;;;5.00;;
15669;SDS011;18524;45.190;5.732;2023-11-18T17:25:47;7.20;;;4.93;;
15669;SDS011;18524;45.190;5.732;2023-11-18T17:30:38;5.60;;;4.77;;
15669;SDS011;18524;45.190;5.732;2023-11-18T17:35:29;9.77;;;6.63;;
15669;SDS011;18524;45.190;5.732;2023-11-18T17:40:20;11.67;;;8.00;;
15669;SDS011;18524;45.190;5.732;2023-11-18T17:45:12;9.20;;;7.63;;
15669;SDS011;18524;45.190;5.732;2023-11-18T17:50:05;9.97;;;7.10;;
15669;SDS011;18524;45.190;5.732;2023-11-18T17:55:02;9.97;;;7.50;;
15669;SDS011;18524;45.190;5.732;2023-11-18T17:59:53;13.07;;;9.07;;
15669;SDS011;18524;45.190;5.732;2023-11-18T18:04:45;22.67;;;14.80;;
15669;SDS011;18524;45.190;5.732;2023-11-18T18:09:37;15.57;;;10.20;;
15669;SDS011;18524;45.190;5.732;2023-11-18T18:14:27;19.77;;;11.00;;
15669;SDS011;18524;45.190;5.732;2023-11-18T18:19:17;12.87;;;10.30;;
15669;SDS011;18524;45.190;5.732;2023-11-18T18:24:08;18.63;;;12.70;;
15669;SDS011;18524;45.190;5.732;2023-11-18T18:29:01;15.57;;;10.40;;
15669;SDS011;18524;45.190;5.732;2023-11-18T18:33:51;14.50;;;10.60;;
15669;SDS011;18524;45.190;5.732;2023-11-18T18:38:41;18.20;;;12.10;;
15669;SDS011;18524;45.190;5.732;2023-11-18T18:43:31;12.43;;;9.63;;
15669;SDS011;18524;45.190;5.732;2023-11-18T18:48:22;11.10;;;7.90;;
15669;SDS011;18524;45.190;5.732;2023-11-18T18:53:12;11.17;;;7.87;;
15669;SDS011;18524;45.190;5.732;2023-11-18T18:58:03;11.97;;;7.93;;
15669;SDS011;18524;45.190;5.732;2023-11-18T19:02:53;17.90;;;12.53;;
15669;SDS011;18524;45.190;5.732;2023-11-18T19:07:44;41.30;;;30.37;;
15669;SDS011;18524;45.190;5.732;2023-11-18T19:12:35;22.47;;;16.03;;
15669;SDS011;18524;45.190;5.732;2023-11-18T19:17:25;21.40;;;14.07;;
15669;SDS011;18524;45.190;5.732;2023-11-18T19:22:15;14.07;;;10.33;;
15669;SDS011;18524;45.190;5.732;2023-11-18T19:27:06;13.40;;;9.83;;
15669;SDS011;18524;45.190;5.732;2023-11-18T19:32:00;16.83;;;13.00;;
15669;SDS011;18524;45.190;5.732;2023-11-18T19:36:52;16.03;;;12.63;;
15669;SDS011;18524;45.190;5.732;2023-11-18T19:41:42;18.20;;;12.77;;
15669;SDS011;18524;45.190;5.732;2023-11-18T19:46:33;20.27;;;13.90;;
15669;SDS011;18524;45.190;5.732;2023-11-18T19:51:23;21.27;;;13.87;;
15669;SDS011;18524;45.190;5.732;2023-11-18T19:56:14;31.90;;;20.20;;
15669;SDS011;18524;45.190;5.732;2023-11-18T20:01:05;28.93;;;20.17;;
15669;SDS011;18524;45.190;5.732;2023-11-18T20:05:55;28.23;;;19.67;;
15669;SDS011;18524;45.190;5.732;2023-11-18T20:10:46;19.43;;;13.20;;
15669;SDS011;18524;45.190;5.732;2023-11-18T20:15:37;18.47;;;12.23;;
15669;SDS011;18524;45.190;5.732;2023-11-18T20:20:27;16.03;;;12.00;;
15669;SDS011;18524;45.190;5.732;2023-11-18T20:25:21;24.60;;;16.57;;
15669;SDS011;18524;45.190;5.732;2023-11-18T20:30:12;22.20;;;14.80;;
15669;SDS011;18524;45.190;5.732;2023-11-18T20:35:04;19.93;;;14.97;;
15669;SDS011;18524;45.190;5.732;2023-11-18T20:39:55;19.50;;;14.20;;
15669;SDS011;18524;45.190;5.732;2023-11-18T20:44:47;29.10;;;18.97;;
15669;SDS011;18524;45.190;5.732;2023-11-18T20:49:37;20.47;;;15.23;;
15669;SDS011;18524;45.190;5.732;2023-11-18T20:54:27;17.67;;;13.13;;
15669;SDS011;18524;45.190;5.732;2023-11-18T20:59:18;17.00;;;12.47;;
15669;SDS011;18524;45.190;5.732;2023-11-18T21:04:08;16.43;;;11.17;;
15669;SDS011;18524;45.190;5.732;2023-11-18T21:08:58;24.13;;;17.10;;
15669;SDS011;18524;45.190;5.732;2023-11-18T21:13:49;17.67;;;14.53;;
15669;SDS011;18524;45.190;5.732;2023-11-18T21:18:40;17.70;;;13.27;;
15669;SDS011;18524;45.190;5.732;2023-11-18T21:23:31;22.57;;;18.30;;
15669;SDS011;18524;45.190;5.732;2023-11-18T21:28:22;19.90;;;16.13;;
15669;SDS011;18524;45.190;5.732;2023-11-18T21:33:12;28.13;;;21.53;;
15669;SDS011;18524;45.190;5.732;2023-11-18T21:38:02;22.83;;;16.57;;
15669;SDS011;18524;45.190;5.732;2023-11-18T21:42:53;20.80;;;16.00;;
15669;SDS011;18524;45.190;5.732;2023-11-18T21:47:43;22.77;;;14.90;;
15669;SDS011;18524;45.190;5.732;2023-11-18T21:52:34;23.27;;;16.43;;
15669;SDS011;18524;45.190;5.732;2023-11-18T21:57:25;20.73;;;14.77;;
15669;SDS011;18524;45.190;5.732;2023-11-18T22:02:15;22.90;;;15.90;;
15669;SDS011;18524;45.190;5.732;2023-11-18T22:07:06;17.30;;;13.97;;
15669;SDS011;18524;45.190;5.732;2023-11-18T22:11:56;17.83;;;13.30;;
15669;SDS011;18524;45.190;5.732;2023-11-18T22:16:47;18.73;;;14.07;;
15669;SDS011;18524;45.190;5.732;2023-11-18T22:21:38;16.83;;;13.63;;
15669;SDS011;18524;45.190;5.732;2023-11-18T22:26:28;20.83;;;15.27;;
15669;SDS011;18524;45.190;5.732;2023-11-18T22:31:19;22.07;;;16.67;;
15669;SDS011;18524;45.190;5.732;2023-11-18T22:36:10;17.87;;;14.43;;
15669;SDS011;18524;45.190;5.732;2023-11-18T22:41:00;17.73;;;14.17;;
15669;SDS011;18524;45.190;5.732;2023-11-18T22:45:53;17.53;;;13.30;;
15669;SDS011;18524;45.190;5.732;2023-11-18T22:50:44;16.50;;;13.10;;
15669;SDS011;18524;45.190;5.732;2023-11-18T22:55:35;18.93;;;13.70;;
15669;SDS011;18524;45.190;5.732;2023-11-18T23:00:25;16.63;;;13.33;;
15669;SDS011;18524;45.190;5.732;2023-11-18T23:05:24;15.23;;;13.30;;
15669;SDS011;18524;45.190;5.732;2023-11-18T23:10:18;16.43;;;12.87;;
15669;SDS011;18524;45.190;5.732;2023-11-18T23:15:08;17.97;;;13.30;;
15669;SDS011;18524;45.190;5.732;2023-11-18T23:19:59;17.43;;;12.20;;
15669;SDS011;18524;45.190;5.732;2023-11-18T23:24:49;17.33;;;12.50;;
15669;SDS011;18524;45.190;5.732;2023-11-18T23:29:40;17.90;;;13.63;;
15669;SDS011;18524;45.190;5.732;2023-11-18T23:34:30;19.57;;;14.17;;
15669;SDS011;18524;45.190;5.732;2023-11-18T23:39:20;16.80;;;13.63;;
15669;SDS011;18524;45.190;5.732;2023-11-18T23:44:18;18.67;;;13.27;;
15669;SDS011;18524;45.190;5.732;2023-11-18T23:49:08;17.40;;;13.90;;
15669;SDS011;18524;45.190;5.732;2023-11-18T23:54:02;17.83;;;13.60;;
15669;SDS011;18524;45.190;5.732;2023-11-18T23:58:53;17.37;;;13.00;;
